createdAt,value
2022-12-08T00:00:48.548Z,16.90
2022-12-08T00:06:09.680Z,16.55
2022-12-08T00:11:15.590Z,14.70
2022-12-08T00:16:17.972Z,16.30
2022-12-08T00:21:20.421Z,15.30
2022-12-08T00:26:23.109Z,14.02
2022-12-08T00:31:25.419Z,13.55
2022-12-08T00:36:28.634Z,12.32
2022-12-08T00:41:49.352Z,13.07
2022-12-08T00:46:51.639Z,13.35
2022-12-08T00:51:54.170Z,13.18
2022-12-08T00:56:58.755Z,13.43
2022-12-08T01:02:06.900Z,12.55
2022-12-08T01:07:09.292Z,14.38
2022-12-08T01:12:11.735Z,13.27
2022-12-08T01:17:14.084Z,13.75
2022-12-08T01:22:16.444Z,15.00
2022-12-08T01:27:18.792Z,14.23
2022-12-08T01:32:21.265Z,13.88
2022-12-08T01:37:23.574Z,13.75
2022-12-08T01:42:26.274Z,11.80
2022-12-08T01:47:35.755Z,12.10
2022-12-08T01:52:47.212Z,13.02
2022-12-08T01:57:56.882Z,13.50
2022-12-08T02:03:03.005Z,14.00
2022-12-08T02:08:08.948Z,12.73
2022-12-08T02:13:17.392Z,14.07
2022-12-08T02:18:25.216Z,13.57
2022-12-08T02:23:33.410Z,13.15
2022-12-08T02:28:48.262Z,12.50
2022-12-08T02:34:44.309Z,13.95
2022-12-08T02:39:57.892Z,14.02
2022-12-08T02:45:15.260Z,14.82
2022-12-08T02:50:17.551Z,14.77
2022-12-08T02:55:31.403Z,14.63
2022-12-08T03:01:07.801Z,13.73
2022-12-08T03:06:26.120Z,12.88
2022-12-08T03:11:40.537Z,14.32
2022-12-08T03:16:46.209Z,14.75
2022-12-08T03:21:52.301Z,15.02
2022-12-08T03:27:03.298Z,15.23
2022-12-08T03:32:34.089Z,16.30
2022-12-08T03:42:42.845Z,17.75
2022-12-08T03:47:45.225Z,16.35
2022-12-08T03:52:47.715Z,17.42
2022-12-08T03:57:50.065Z,14.48
2022-12-08T04:02:52.342Z,14.98
2022-12-08T04:07:58.488Z,15.07
2022-12-08T04:13:00.909Z,14.55
2022-12-08T04:18:03.180Z,15.15
2022-12-08T04:23:05.517Z,15.63
2022-12-08T04:28:08.137Z,16.52
2022-12-08T04:33:10.562Z,18.90
2022-12-08T04:38:13.481Z,17.00
2022-12-08T04:43:15.932Z,16.55
2022-12-08T04:48:18.672Z,14.40
2022-12-08T04:53:21.756Z,14.40
2022-12-08T04:58:23.994Z,14.75
2022-12-08T05:03:28.747Z,15.32
2022-12-08T05:08:31.420Z,16.80
2022-12-08T05:13:34.233Z,19.95
2022-12-08T05:18:38.047Z,18.38
2022-12-08T05:23:40.693Z,17.38
2022-12-08T05:28:43.735Z,17.10
2022-12-08T05:33:46.963Z,17.00
2022-12-08T05:38:49.397Z,17.92
2022-12-08T05:43:51.797Z,19.40
2022-12-08T05:48:54.052Z,20.52
2022-12-08T05:53:57.251Z,22.17
2022-12-08T05:58:59.718Z,21.80
2022-12-08T06:04:04.594Z,19.88
2022-12-08T06:09:07.399Z,18.52
2022-12-08T06:14:12.779Z,15.57
2022-12-08T06:19:16.525Z,15.80
2022-12-08T06:24:18.946Z,15.82
2022-12-08T06:29:21.444Z,16.00
2022-12-08T06:34:23.802Z,14.52
2022-12-08T06:39:26.128Z,16.48
2022-12-08T06:44:28.480Z,15.90
2022-12-08T06:49:30.765Z,16.98
2022-12-08T06:54:33.095Z,17.02
2022-12-08T06:59:35.482Z,20.42
2022-12-08T07:04:38.004Z,19.92
2022-12-08T07:09:40.261Z,20.35
2022-12-08T07:14:42.524Z,20.33
2022-12-08T07:19:45.113Z,19.98
2022-12-08T07:24:47.493Z,19.20
2022-12-08T07:29:49.849Z,22.15
2022-12-08T07:34:52.308Z,23.65
2022-12-08T07:39:54.664Z,24.15
2022-12-08T07:44:56.894Z,20.48
2022-12-08T07:49:59.441Z,21.80
2022-12-08T07:55:01.864Z,20.50
2022-12-08T08:00:05.983Z,19.48
2022-12-08T08:05:09.231Z,19.55
2022-12-08T08:10:12.620Z,18.80
2022-12-08T08:15:15.078Z,18.45
2022-12-08T08:20:18.335Z,19.40
2022-12-08T08:25:23.370Z,20.05
2022-12-08T08:30:25.794Z,19.60
2022-12-08T08:35:31.283Z,20.80
2022-12-08T08:40:33.606Z,21.55
2022-12-08T08:45:36.397Z,20.73
2022-12-08T08:50:38.678Z,23.02
2022-12-08T08:55:41.046Z,21.25
2022-12-08T09:00:43.541Z,21.25
2022-12-08T09:05:46.953Z,19.95
2022-12-08T09:10:49.511Z,17.98
2022-12-08T09:15:51.861Z,18.50
2022-12-08T09:20:55.092Z,18.60
2022-12-08T09:25:57.486Z,21.00
2022-12-08T09:30:59.934Z,21.38
2022-12-08T09:36:04.553Z,20.00
2022-12-08T09:41:18.373Z,16.88
2022-12-08T09:46:21.308Z,18.20
2022-12-08T09:51:31.225Z,19.35
2022-12-08T10:01:42.198Z,15.40
2022-12-08T10:07:09.083Z,15.30
2022-12-08T10:12:26.653Z,16.25
2022-12-08T10:17:36.753Z,16.50
2022-12-08T10:22:44.452Z,16.45
2022-12-08T10:27:51.341Z,17.52
2022-12-08T10:38:41.405Z,16.30
2022-12-08T10:54:39.463Z,16.90
2022-12-08T11:16:01.289Z,18.10
2022-12-08T11:21:20.612Z,16.02
2022-12-08T11:48:57.347Z,13.63
2022-12-08T11:54:23.070Z,14.43
2022-12-08T12:05:05.261Z,13.55
2022-12-08T12:10:33.204Z,13.40
2022-12-08T12:15:57.790Z,12.68
2022-12-08T12:21:13.148Z,11.52
2022-12-08T12:26:28.722Z,12.02
2022-12-08T12:31:42.322Z,12.38
2022-12-08T12:36:59.307Z,12.90
2022-12-08T12:42:03.094Z,13.50
2022-12-08T12:47:11.858Z,12.77
2022-12-08T12:52:16.869Z,13.30
2022-12-08T12:57:19.168Z,11.68
2022-12-08T13:02:21.401Z,10.63
2022-12-08T13:07:27.667Z,11.52
2022-12-08T13:12:30.683Z,8.95
2022-12-08T13:17:37.073Z,10.45
2022-12-08T13:22:54.911Z,10.13
2022-12-08T13:27:57.529Z,10.70
2022-12-08T13:33:17.842Z,10.90
2022-12-08T13:38:27.092Z,11.82
2022-12-08T13:43:55.585Z,12.40
2022-12-08T13:50:55.398Z,17.17
2022-12-08T14:00:06.142Z,13.90
2022-12-08T14:05:18.024Z,12.43
2022-12-08T14:10:26.498Z,12.45
2022-12-08T14:15:34.007Z,13.68
2022-12-08T14:21:12.269Z,12.80
2022-12-08T14:26:03.946Z,12.93
2022-12-08T14:31:06.922Z,14.52
2022-12-08T14:36:10.809Z,15.02
2022-12-08T14:41:13.153Z,15.85
2022-12-08T14:46:24.303Z,16.15
2022-12-08T14:51:31.231Z,16.45
2022-12-08T14:56:52.290Z,17.40
2022-12-08T15:02:10.507Z,17.38
2022-12-08T15:07:14.778Z,17.65
2022-12-08T15:12:27.259Z,20.48
2022-12-08T15:18:00.467Z,26.17
2022-12-08T15:23:03.131Z,24.63
2022-12-08T15:28:05.655Z,29.48
2022-12-08T15:33:07.981Z,30.65
2022-12-08T15:38:36.721Z,26.38
2022-12-08T15:43:39.950Z,31.53
2022-12-08T15:48:42.388Z,34.10
2022-12-08T15:53:44.686Z,33.75
2022-12-08T15:58:56.157Z,34.17
2022-12-08T16:04:37.003Z,34.13
2022-12-08T16:09:43.964Z,32.88
2022-12-08T16:15:47.277Z,37.88
2022-12-08T16:20:15.948Z,46.45
2022-12-08T16:25:20.328Z,43.58
2022-12-08T16:30:24.013Z,41.90
2022-12-08T16:35:26.287Z,39.40
2022-12-08T16:40:28.726Z,38.08
2022-12-08T16:45:31.215Z,37.00
2022-12-08T16:50:35.773Z,37.72
2022-12-08T16:55:38.160Z,37.92
2022-12-08T17:00:41.011Z,45.50
2022-12-08T17:05:45.053Z,50.88
2022-12-08T17:11:07.571Z,41.45
2022-12-08T17:16:17.039Z,42.53
2022-12-08T17:21:19.689Z,39.72
2022-12-08T17:26:21.924Z,45.70
2022-12-08T17:31:29.369Z,43.03
2022-12-08T17:36:32.533Z,51.20
2022-12-08T17:41:35.455Z,44.33
2022-12-08T17:46:42.086Z,43.30
2022-12-08T17:51:54.176Z,45.50
2022-12-08T17:56:58.968Z,37.20
2022-12-08T18:02:01.836Z,39.45
2022-12-08T18:07:04.741Z,33.78
2022-12-08T18:12:07.330Z,33.15
2022-12-08T18:17:09.653Z,38.03
2022-12-08T18:22:12.714Z,40.90
2022-12-08T18:27:15.232Z,36.78
2022-12-08T18:32:17.608Z,38.92
2022-12-08T18:37:20.123Z,33.53
2022-12-08T18:42:25.347Z,38.63
2022-12-08T18:47:27.664Z,37.80
2022-12-08T18:52:32.298Z,45.95
2022-12-08T18:57:37.918Z,42.00
2022-12-08T19:02:40.515Z,42.05
2022-12-08T19:07:43.346Z,48.75
2022-12-08T19:12:45.766Z,47.65
2022-12-08T19:17:48.464Z,46.50
2022-12-08T19:22:50.784Z,47.95
2022-12-08T19:27:53.137Z,48.15
2022-12-08T19:32:55.512Z,44.03
2022-12-08T19:37:57.775Z,41.47
2022-12-08T19:43:18.567Z,40.58
2022-12-08T19:48:23.972Z,37.17
2022-12-08T19:53:26.570Z,32.45
2022-12-08T19:58:28.917Z,36.75
2022-12-08T20:03:31.368Z,34.50
2022-12-08T20:08:33.793Z,37.38
2022-12-08T20:13:46.473Z,37.63
2022-12-08T20:18:49.373Z,34.50
2022-12-08T20:23:51.871Z,38.00
2022-12-08T20:28:54.454Z,42.72
2022-12-08T20:33:56.925Z,36.92
2022-12-08T20:38:59.246Z,33.25
2022-12-08T20:44:01.755Z,42.85
2022-12-08T20:49:05.748Z,53.58
2022-12-08T20:54:10.246Z,51.75
2022-12-08T20:59:18.105Z,37.35
2022-12-08T21:04:21.768Z,36.92
2022-12-08T21:09:24.487Z,41.63
2022-12-08T21:14:27.093Z,41.60
2022-12-08T21:19:29.600Z,37.65
2022-12-08T21:24:34.399Z,38.42
2022-12-08T21:29:37.386Z,41.88
2022-12-08T21:34:40.089Z,40.45
2022-12-08T21:39:42.531Z,38.35
2022-12-08T21:44:45.070Z,35.65
2022-12-08T21:49:47.432Z,39.22
2022-12-08T21:54:50.628Z,40.63
2022-12-08T21:59:53.135Z,38.80
2022-12-08T22:04:55.632Z,41.65
2022-12-08T22:09:58.179Z,40.55
2022-12-08T22:15:00.714Z,42.63
2022-12-08T22:20:04.360Z,43.40
2022-12-08T22:25:08.323Z,38.70
2022-12-08T22:30:12.021Z,22.02
2022-12-08T22:35:14.718Z,18.20
2022-12-08T22:40:17.202Z,17.77
2022-12-08T22:45:19.578Z,16.35
2022-12-08T22:50:22.014Z,16.77
2022-12-08T22:55:24.314Z,19.10
2022-12-08T23:00:27.017Z,17.85
2022-12-08T23:05:33.401Z,16.75
2022-12-08T23:10:36.504Z,14.75
2022-12-08T23:15:39.627Z,15.75
2022-12-08T23:20:42.768Z,15.25
2022-12-08T23:25:45.240Z,16.65
2022-12-08T23:30:47.764Z,16.55
2022-12-08T23:35:59.570Z,17.25
2022-12-08T23:41:07.728Z,16.83
2022-12-08T23:46:10.437Z,16.45
2022-12-08T23:51:13.376Z,17.02
2022-12-08T23:56:18.110Z,18.08
